Time;durP1;ratioP1;P1;durP2;ratioP2;P2;SDS_P1;SDS_P2;PMS_P1;PMS_P2;Temp;Humidity;BMP_temperature;BMP_pressure;BME280_temperature;BME280_humidity;BME280_pressure;Samples;Min_cycle;Max_cycle;Signal;HPM_P1;HPM_P2
2022/07/12 00:00:12;;;;;;;6.40;2.40;;;16.30;99.90;;;;;;4998645;28;236186;-79
2022/07/12 00:02:38;;;;;;;6.63;2.35;;;16.30;99.90;;;;;;4973232;28;206940;-80
2022/07/12 00:05:05;;;;;;;7.28;2.22;;;16.40;99.90;;;;;;4978255;28;242448;-78
2022/07/12 00:07:31;;;;;;;6.75;2.10;;;16.40;99.90;;;;;;4920374;28;205110;-79
2022/07/12 00:09:57;;;;;;;7.30;1.95;;;16.40;99.90;;;;;;4999377;28;60741;-79
2022/07/12 00:12:24;;;;;;;6.25;2.20;;;16.40;99.90;;;;;;4952867;28;208070;-79
2022/07/12 00:14:50;;;;;;;7.50;2.20;;;16.50;99.90;;;;;;5002703;28;28489;-79
2022/07/12 00:17:16;;;;;;;6.10;2.00;;;16.50;99.90;;;;;;4947248;28;205038;-79
2022/07/12 00:19:42;;;;;;;7.28;2.50;;;16.50;99.90;;;;;;5005195;28;38830;-79
2022/07/12 00:22:08;;;;;;;6.68;2.33;;;16.60;99.90;;;;;;4958536;28;214687;-77
2022/07/12 00:24:34;;;;;;;6.38;2.35;;;16.60;99.90;;;;;;4980963;28;254344;-79
2022/07/12 00:27:00;;;;;;;7.20;2.67;;;16.50;99.90;;;;;;4959237;28;211864;-79
2022/07/12 00:29:26;;;;;;;6.90;2.57;;;16.50;99.90;;;;;;4992062;28;251760;-81
2022/07/12 00:31:53;;;;;;;6.40;2.30;;;16.50;99.90;;;;;;4956828;28;207706;-81
2022/07/12 00:34:19;;;;;;;6.53;2.38;;;16.50;99.90;;;;;;4987118;28;253028;-81
2022/07/12 00:36:45;;;;;;;6.82;2.67;;;16.50;99.90;;;;;;4936312;28;211586;-79
2022/07/12 00:39:11;;;;;;;7.07;2.63;;;16.50;99.90;;;;;;4977895;28;255059;-79
2022/07/12 00:41:37;;;;;;;6.80;2.50;;;16.50;99.90;;;;;;4968684;28;215064;-78
2022/07/12 00:44:04;;;;;;;8.35;3.10;;;16.50;99.90;;;;;;5019322;28;20064;-79
2022/07/12 00:46:31;;;;;;;7.65;3.20;;;16.50;99.90;;;;;;4971136;28;158934;-78
2022/07/12 00:48:58;;;;;;;7.43;2.50;;;16.40;99.90;;;;;;5005223;28;20061;-78
2022/07/12 00:51:25;;;;;;;8.05;3.15;;;16.40;99.90;;;;;;4926900;28;204706;-78
2022/07/12 00:53:53;;;;;;;7.43;2.80;;;16.30;99.90;;;;;;4981600;28;20057;-78
2022/07/12 00:56:19;;;;;;;8.35;2.70;;;16.30;99.90;;;;;;4928518;28;212493;-80
2022/07/12 00:58:45;;;;;;;7.40;3.03;;;16.30;99.90;;;;;;5006423;28;20050;-80
2022/07/12 01:01:12;;;;;;;8.68;2.88;;;16.30;99.90;;;;;;4930477;28;208333;-80
2022/07/12 01:03:38;;;;;;;7.40;3.10;;;16.30;99.90;;;;;;4979146;28;20065;-81
2022/07/12 01:06:06;;;;;;;7.05;2.50;;;16.30;99.90;;;;;;4934990;28;201075;-81
2022/07/12 01:08:33;;;;;;;7.85;2.92;;;16.30;99.90;;;;;;5001387;28;20077;-81
2022/07/12 01:11:00;;;;;;;8.00;2.90;;;16.30;99.90;;;;;;4946147;28;206910;-81
2022/07/12 01:13:26;;;;;;;7.97;3.70;;;16.30;99.90;;;;;;4995616;28;20054;-81
2022/07/12 01:15:53;;;;;;;7.10;2.83;;;16.20;99.90;;;;;;4934889;28;218998;-81
2022/07/12 01:18:20;;;;;;;7.22;3.10;;;16.20;99.90;;;;;;4990890;28;20064;-81
2022/07/12 01:20:46;;;;;;;7.18;2.85;;;16.20;99.90;;;;;;4952951;28;206387;-82
2022/07/12 01:23:14;;;;;;;7.10;2.50;;;16.20;99.90;;;;;;4985841;28;20062;-81
2022/07/12 01:25:40;;;;;;;7.40;2.80;;;16.20;99.90;;;;;;4958493;28;216063;-80
2022/07/12 01:28:06;;;;;;;7.57;2.70;;;16.20;99.90;;;;;;5002265;28;20511;-81
2022/07/12 01:30:32;;;;;;;7.20;3.00;;;16.20;99.90;;;;;;4956336;28;206236;-81
2022/07/12 01:33:00;;;;;;;7.55;2.95;;;16.20;99.90;;;;;;4992753;28;20412;-81
2022/07/12 01:35:27;;;;;;;7.22;2.90;;;16.20;99.90;;;;;;4954773;28;204270;-81
2022/07/12 01:37:53;;;;;;;7.50;2.67;;;16.10;99.90;;;;;;4992369;28;20038;-80
2022/07/12 01:40:20;;;;;;;7.85;3.10;;;16.10;99.90;;;;;;4958274;28;208605;-81
2022/07/12 01:42:48;;;;;;;7.00;3.00;;;16.10;99.90;;;;;;4990983;28;181831;-81
2022/07/12 01:45:14;;;;;;;7.55;3.10;;;16.10;99.90;;;;;;4994887;28;63639;-81
2022/07/12 01:47:40;;;;;;;7.50;2.70;;;16.10;99.90;;;;;;4966244;28;215071;-82
2022/07/12 01:50:08;;;;;;;7.43;3.50;;;16.10;99.90;;;;;;4987441;28;153542;-81
2022/07/12 01:52:35;;;;;;;7.75;3.03;;;16.10;99.90;;;;;;4953350;28;195240;-81
2022/07/12 01:55:02;;;;;;;9.05;3.30;;;16.00;99.90;;;;;;4997791;28;243561;-81
2022/07/12 01:57:29;;;;;;;7.97;3.60;;;16.00;99.90;;;;;;4949812;28;205383;-81
2022/07/12 01:59:56;;;;;;;7.32;3.47;;;16.00;99.90;;;;;;4979303;28;203625;-80
2022/07/12 02:02:26;;;;;;;9.93;3.58;;;15.90;99.90;;;;;;4963908;28;205845;-81
2022/07/12 02:04:54;;;;;;;8.05;3.38;;;15.90;99.90;;;;;;4987134;28;150973;-82
2022/07/12 02:07:22;;;;;;;8.82;3.30;;;15.90;99.90;;;;;;4938955;28;218261;-81
2022/07/12 02:09:48;;;;;;;7.60;3.20;;;15.90;99.90;;;;;;5009829;28;102920;-81
2022/07/12 02:12:15;;;;;;;8.20;3.20;;;15.90;99.90;;;;;;4955510;28;211023;-81
2022/07/12 02:14:41;;;;;;;7.53;3.28;;;15.80;99.90;;;;;;4991270;28;88797;-81
2022/07/12 02:17:07;;;;;;;7.20;3.08;;;15.80;99.90;;;;;;4951236;28;205636;-80
2022/07/12 02:19:33;;;;;;;7.80;3.25;;;15.80;99.90;;;;;;5009402;28;49493;-80
2022/07/12 02:21:59;;;;;;;8.63;3.35;;;15.80;99.90;;;;;;4956549;28;158422;-81
2022/07/12 02:24:25;;;;;;;7.27;3.03;;;15.70;99.90;;;;;;5006333;28;256652;-81
2022/07/12 02:26:51;;;;;;;7.68;3.40;;;15.70;99.90;;;;;;4972586;28;151489;-81
2022/07/12 02:29:18;;;;;;;7.57;3.40;;;15.70;99.90;;;;;;4996008;28;250314;-81
2022/07/12 02:31:44;;;;;;;7.40;3.17;;;15.60;99.90;;;;;;4962152;28;209005;-80
2022/07/12 02:34:10;;;;;;;7.78;3.30;;;15.60;99.90;;;;;;4996167;28;257010;-80
2022/07/12 02:36:36;;;;;;;8.00;2.97;;;15.50;99.90;;;;;;4965257;28;208118;-81
2022/07/12 02:39:04;;;;;;;8.38;3.60;;;15.50;99.90;;;;;;5012080;28;20049;-80
2022/07/12 02:41:31;;;;;;;7.75;3.20;;;15.40;99.90;;;;;;4945955;28;207659;-80
2022/07/12 02:43:57;;;;;;;7.85;3.30;;;15.40;99.90;;;;;;4998351;28;20069;-80
2022/07/12 02:46:23;;;;;;;8.38;3.97;;;15.30;99.90;;;;;;4944065;28;198927;-81
2022/07/12 02:48:50;;;;;;;8.50;3.47;;;15.30;99.90;;;;;;4992390;28;20049;-81
2022/07/12 02:51:16;;;;;;;7.60;3.40;;;15.20;99.90;;;;;;4966891;28;271254;-81
2022/07/12 02:53:42;;;;;;;7.43;2.97;;;15.10;99.90;;;;;;5009160;28;20050;-80
2022/07/12 02:56:09;;;;;;;8.05;3.30;;;15.10;99.90;;;;;;4957974;28;225864;-81
2022/07/12 02:58:36;;;;;;;7.25;3.08;;;15.00;99.90;;;;;;5005612;28;20057;-80
2022/07/12 03:01:02;;;;;;;7.97;3.38;;;15.00;99.90;;;;;;4956849;28;214811;-81
2022/07/12 03:03:29;;;;;;;10.20;3.28;;;14.90;99.90;;;;;;5015476;28;20058;-81
2022/07/12 03:05:55;;;;;;;9.30;3.63;;;14.90;99.90;;;;;;4912232;28;206778;-82
2022/07/12 03:08:21;;;;;;;7.95;3.40;;;14.80;99.90;;;;;;4977573;28;20053;-81
2022/07/12 03:10:48;;;;;;;9.18;3.55;;;14.80;99.90;;;;;;4968779;28;152078;-80
2022/07/12 03:13:14;;;;;;;8.00;3.60;;;14.70;99.90;;;;;;4994966;28;20050;-80
2022/07/12 03:15:41;;;;;;;6.93;2.90;;;14.70;99.90;;;;;;4945080;28;228500;-80
2022/07/12 03:18:07;;;;;;;8.43;3.15;;;14.60;99.90;;;;;;4994394;28;20054;-80
2022/07/12 03:20:33;;;;;;;8.23;3.60;;;14.60;99.90;;;;;;4967357;28;210969;-80
2022/07/12 03:22:59;;;;;;;9.15;3.25;;;14.50;99.90;;;;;;5007300;28;20061;-80
2022/07/12 03:25:25;;;;;;;9.07;3.50;;;14.50;99.90;;;;;;4953101;28;211239;-81
2022/07/12 03:27:51;;;;;;;8.20;3.47;;;14.50;99.90;;;;;;4984230;28;20495;-81
2022/07/12 03:30:17;;;;;;;7.35;2.85;;;14.40;99.90;;;;;;4974638;28;230688;-80
2022/07/12 03:32:44;;;;;;;8.10;3.45;;;14.40;99.90;;;;;;4964495;28;206745;-81
2022/07/12 03:35:10;;;;;;;8.13;3.47;;;14.40;99.90;;;;;;4997650;28;171511;-81
2022/07/12 03:37:51;;;;;;;8.55;3.67;;;14.30;99.90;;;;;;4978591;28;209996;-82
2022/07/12 03:40:19;;;;;;;7.43;3.13;;;14.30;99.90;;;;;;4989471;28;225567;-81
2022/07/12 03:42:47;;;;;;;8.75;3.45;;;14.30;99.90;;;;;;4987032;28;129738;-81
2022/07/12 03:45:14;;;;;;;7.63;3.28;;;14.20;99.90;;;;;;4998291;28;142565;-80
2022/07/12 03:47:41;;;;;;;7.32;2.90;;;14.20;99.90;;;;;;4961243;28;206960;-80
2022/07/12 03:50:10;;;;;;;8.23;3.38;;;14.20;99.90;;;;;;4998347;28;170153;-81
2022/07/12 03:52:37;;;;;;;7.93;3.40;;;14.20;99.90;;;;;;4935963;28;206180;-81
2022/07/12 03:55:03;;;;;;;8.50;3.22;;;14.10;99.90;;;;;;4997099;28;203005;-81
2022/07/12 03:57:30;;;;;;;9.90;3.35;;;14.20;99.90;;;;;;4957364;28;210504;-81
2022/07/12 03:59:57;;;;;;;8.02;3.72;;;14.10;99.90;;;;;;4981799;28;192720;-80
2022/07/12 04:02:23;;;;;;;7.68;3.38;;;14.20;99.90;;;;;;4961651;28;213330;-81
2022/07/12 04:04:51;;;;;;;8.68;3.03;;;14.20;99.90;;;;;;4984544;28;202558;-81
2022/07/12 04:07:18;;;;;;;8.32;3.10;;;14.20;99.90;;;;;;4960890;28;210146;-81
2022/07/12 04:09:44;;;;;;;8.55;3.50;;;14.20;99.90;;;;;;4990725;28;31151;-80
2022/07/12 04:12:10;;;;;;;7.72;3.20;;;14.20;99.90;;;;;;4943910;28;209007;-78
2022/07/12 04:14:36;;;;;;;8.48;3.47;;;14.20;99.90;;;;;;5001488;28;225012;-78
2022/07/12 04:17:04;;;;;;;8.00;3.15;;;14.30;99.90;;;;;;4970551;28;206282;-79
2022/07/12 04:19:32;;;;;;;9.43;3.33;;;14.30;99.90;;;;;;4983971;28;260143;-79
2022/07/12 04:21:59;;;;;;;8.73;3.20;;;14.30;99.90;;;;;;4965893;28;198107;-79
2022/07/12 04:24:25;;;;;;;7.75;2.85;;;14.30;99.90;;;;;;4994948;28;254973;-81
2022/07/12 04:26:51;;;;;;;8.63;2.80;;;14.40;99.90;;;;;;4981532;28;237087;-80
2022/07/12 04:29:18;;;;;;;7.90;3.10;;;14.40;99.90;;;;;;4998451;28;261781;-81
2022/07/12 04:31:44;;;;;;;8.70;3.38;;;14.40;99.90;;;;;;4942015;28;215756;-83
2022/07/12 04:34:11;;;;;;;8.38;3.30;;;14.50;99.90;;;;;;4985767;28;256933;-81
2022/07/12 04:36:37;;;;;;;7.55;3.00;;;14.50;99.90;;;;;;4968503;28;203973;-78
2022/07/12 04:39:03;;;;;;;7.82;3.15;;;14.50;99.90;;;;;;5010911;28;20049;-79
2022/07/12 04:41:30;;;;;;;8.00;3.30;;;14.60;99.90;;;;;;4940029;28;267042;-80
2022/07/12 04:43:56;;;;;;;8.15;3.25;;;14.70;99.90;;;;;;5003783;28;20678;-79
2022/07/12 04:46:22;;;;;;;8.60;2.95;;;14.70;99.90;;;;;;4951024;28;205435;-80
2022/07/12 04:48:48;;;;;;;7.65;3.47;;;14.70;99.90;;;;;;5004842;28;20318;-81
2022/07/12 04:51:16;;;;;;;10.05;3.40;;;14.80;99.90;;;;;;4968400;28;174134;-81
2022/07/12 04:53:42;;;;;;;7.82;3.30;;;14.80;99.90;;;;;;5016564;28;20072;-80
2022/07/12 04:56:08;;;;;;;8.25;3.35;;;14.90;99.90;;;;;;4937129;28;249467;-80
2022/07/12 04:58:35;;;;;;;8.00;3.30;;;15.00;99.90;;;;;;4999721;28;20072;-81
2022/07/12 05:01:01;;;;;;;7.45;3.00;;;15.00;99.90;;;;;;4934316;28;212669;-81
2022/07/12 05:03:28;;;;;;;7.28;2.63;;;15.10;99.90;;;;;;4976448;28;20050;-81
2022/07/12 05:05:55;;;;;;;8.35;3.17;;;15.20;99.90;;;;;;4914038;28;211933;-81
2022/07/12 05:08:22;;;;;;;7.85;3.25;;;15.20;99.90;;;;;;4994102;28;20058;-81
2022/07/12 05:10:48;;;;;;;7.88;2.80;;;15.30;99.90;;;;;;4934347;28;229013;-82
2022/07/12 05:13:14;;;;;;;7.18;2.70;;;15.40;99.90;;;;;;5010808;28;20471;-80
2022/07/12 05:15:40;;;;;;;9.95;3.30;;;15.50;99.90;;;;;;4959062;28;142105;-81
2022/07/12 05:18:07;;;;;;;8.60;3.10;;;15.50;99.90;;;;;;4994861;28;20054;-81
2022/07/12 05:20:33;;;;;;;7.55;2.83;;;15.60;99.90;;;;;;4937443;28;207674;-81
2022/07/12 05:22:59;;;;;;;7.40;2.70;;;15.70;99.90;;;;;;5016473;28;20046;-81
2022/07/12 05:25:25;;;;;;;7.70;3.20;;;15.80;99.90;;;;;;4966284;28;211399;-81
2022/07/12 05:27:51;;;;;;;8.93;3.15;;;15.90;99.90;;;;;;4991041;28;20050;-81
2022/07/12 05:30:17;;;;;;;7.22;2.88;;;16.10;99.90;;;;;;4987200;28;237984;-81
2022/07/12 05:32:44;;;;;;;8.60;3.22;;;16.20;99.90;;;;;;4950751;28;206457;-81
2022/07/12 05:35:10;;;;;;;7.07;2.90;;;16.40;99.90;;;;;;4995156;28;225640;-81
2022/07/12 05:37:36;;;;;;;14.23;3.50;;;16.40;99.90;;;;;;4961865;28;207562;-81
2022/07/12 05:40:02;;;;;;;7.70;2.80;;;16.50;99.90;;;;;;4994963;28;221252;-81
2022/07/12 05:42:28;;;;;;;7.78;2.58;;;16.70;99.90;;;;;;4937718;28;127655;-81
2022/07/12 05:44:56;;;;;;;7.10;2.60;;;16.80;99.90;;;;;;5002662;28;27486;-81
2022/07/12 05:47:22;;;;;;;7.07;2.60;;;16.90;99.90;;;;;;4964038;28;90922;-81
2022/07/12 05:49:48;;;;;;;7.88;2.63;;;17.00;99.90;;;;;;4994812;28;213859;-81
2022/07/12 05:55:02;;;;;;;7.90;2.85;;;17.00;99.90;;;;;;4998071;28;47464;-82
2022/07/12 05:57:28;;;;;;;7.32;2.80;;;17.10;99.90;;;;;;4967146;28;207373;-82
2022/07/12 05:59:54;;;;;;;7.30;2.85;;;17.10;99.90;;;;;;4996728;28;45963;-81
2022/07/12 06:02:21;;;;;;;7.22;2.80;;;17.20;99.90;;;;;;4960666;28;207613;-81
2022/07/12 06:04:47;;;;;;;7.07;2.92;;;17.30;99.90;;;;;;4968198;28;238335;-82
2022/07/12 06:07:13;;;;;;;10.93;3.05;;;17.40;99.90;;;;;;4954166;28;110177;-82
2022/07/12 06:09:39;;;;;;;7.63;2.97;;;17.50;99.90;;;;;;4996011;28;224759;-81
2022/07/12 06:12:06;;;;;;;7.88;2.90;;;17.70;99.90;;;;;;4952035;28;214486;-81
2022/07/12 06:14:32;;;;;;;7.18;2.90;;;17.80;99.90;;;;;;5005273;28;38716;-82
2022/07/12 06:16:58;;;;;;;8.75;3.20;;;17.90;99.90;;;;;;4958714;28;200478;-81
2022/07/12 06:19:25;;;;;;;8.73;3.07;;;17.90;99.90;;;;;;4987790;28;265359;-81
2022/07/12 06:21:51;;;;;;;7.45;2.70;;;17.90;99.90;;;;;;4967575;28;215902;-81
2022/07/12 06:24:17;;;;;;;9.82;3.03;;;18.00;99.90;;;;;;4996956;28;250256;-81
2022/07/12 06:26:43;;;;;;;7.28;3.00;;;18.00;99.90;;;;;;4954150;28;206850;-81
2022/07/12 06:29:09;;;;;;;6.70;2.85;;;18.10;99.90;;;;;;4992658;28;261723;-80
2022/07/12 06:31:35;;;;;;;7.70;3.20;;;18.10;99.90;;;;;;4978064;28;214228;-80
2022/07/12 06:34:02;;;;;;;8.98;3.10;;;18.20;99.90;;;;;;5021173;28;20064;-81
2022/07/12 06:36:28;;;;;;;9.48;3.15;;;18.20;99.90;;;;;;4955377;28;218972;-80
2022/07/12 06:38:54;;;;;;;9.20;2.90;;;18.20;99.90;;;;;;5015548;28;20041;-82
2022/07/12 06:41:21;;;;;;;7.75;3.10;;;18.30;99.90;;;;;;4951523;28;203536;-81
2022/07/12 06:43:47;;;;;;;7.38;3.13;;;18.40;99.90;;;;;;5006540;28;20050;-80
2022/07/12 06:46:13;;;;;;;7.97;2.90;;;18.40;99.90;;;;;;4960054;28;206397;-81
2022/07/12 06:48:39;;;;;;;7.40;3.00;;;18.50;99.90;;;;;;5000721;28;20193;-81
2022/07/12 06:51:05;;;;;;;7.47;3.08;;;18.70;99.90;;;;;;4951322;28;209779;-80
2022/07/12 06:53:31;;;;;;;8.07;2.80;;;18.90;99.90;;;;;;5004809;28;20064;-80
2022/07/12 06:55:58;;;;;;;6.80;2.55;;;19.00;99.90;;;;;;4947264;28;220345;-80
2022/07/12 06:58:24;;;;;;;6.70;2.60;;;19.10;99.90;;;;;;5005987;28;20064;-80
2022/07/12 07:00:50;;;;;;;7.40;3.10;;;19.20;99.90;;;;;;4952854;28;212952;-79
2022/07/12 07:03:16;;;;;;;7.05;2.80;;;19.30;99.90;;;;;;5014929;28;20057;-78
2022/07/12 07:05:42;;;;;;;6.97;2.70;;;19.40;99.90;;;;;;4932272;28;262307;-79
2022/07/12 07:08:08;;;;;;;7.68;2.55;;;19.60;99.90;;;;;;4979467;28;20051;-79
2022/07/12 07:10:34;;;;;;;7.30;2.67;;;19.70;99.90;;;;;;4945133;28;212167;-79
2022/07/12 07:13:01;;;;;;;6.72;2.55;;;19.80;99.90;;;;;;4991953;28;20058;-80
2022/07/12 07:15:27;;;;;;;6.50;2.42;;;20.00;99.90;;;;;;4943671;28;216671;-79
2022/07/12 07:17:53;;;;;;;6.72;2.80;;;20.20;99.90;;;;;;4975288;28;20050;-79
2022/07/12 07:20:19;;;;;;;6.40;2.42;;;20.40;99.90;;;;;;4961850;28;209944;-80
2022/07/12 07:22:45;;;;;;;6.90;2.40;;;20.80;99.90;;;;;;4977118;28;54877;-79
2022/07/12 07:25:12;;;;;;;6.95;2.45;;;21.30;99.90;;;;;;4991871;28;223569;-80
2022/07/12 07:27:38;;;;;;;6.55;2.33;;;21.90;99.90;;;;;;4961184;28;201168;-79
2022/07/12 07:32:53;;;;;;;7.22;2.50;;;22.20;99.90;;;;;;4955928;28;220862;-79
2022/07/12 07:35:19;;;;;;;6.50;2.35;;;22.30;99.90;;;;;;4976769;28;214747;-81
2022/07/12 07:37:46;;;;;;;7.82;2.20;;;22.40;99.90;;;;;;5000594;28;101739;-78
2022/07/12 07:40:12;;;;;;;6.35;2.35;;;22.50;99.90;;;;;;5016683;28;113947;-78
2022/07/12 07:42:38;;;;;;;8.48;2.38;;;22.80;99.90;;;;;;4975493;28;211124;-78
2022/07/12 07:45:06;;;;;;;7.00;2.30;;;23.10;99.90;;;;;;4998145;28;32297;-78
2022/07/12 07:47:50;;;;;;;6.05;2.03;;;23.40;99.90;;;;;;4953427;28;209227;-79
2022/07/12 07:50:17;;;;;;;7.63;2.42;;;23.50;99.90;;;;;;4987551;28;81974;-80
2022/07/12 07:52:43;;;;;;;6.28;2.40;;;23.50;99.90;;;;;;4954858;28;209848;-79
2022/07/12 07:55:09;;;;;;;7.38;2.13;;;23.70;99.90;;;;;;5003169;28;143393;-79
2022/07/12 07:57:35;;;;;;;6.93;2.40;;;23.70;99.90;;;;;;4937181;28;207147;-79
2022/07/12 08:00:02;;;;;;;7.82;2.30;;;23.80;99.90;;;;;;4998228;28;43850;-78
2022/07/12 08:02:29;;;;;;;6.05;2.17;;;24.10;99.90;;;;;;4952656;28;212464;-78
2022/07/12 08:04:55;;;;;;;6.20;2.13;;;24.30;99.90;;;;;;4980247;28;240921;-79
2022/07/12 08:07:21;;;;;;;5.93;2.05;;;24.50;99.90;;;;;;4946867;28;203512;-79
2022/07/12 08:09:47;;;;;;;6.60;2.20;;;24.90;99.90;;;;;;5006547;28;127394;-79
2022/07/12 08:12:13;;;;;;;7.63;2.38;;;25.20;99.90;;;;;;4949168;28;95808;-79
2022/07/12 08:14:40;;;;;;;6.93;2.25;;;25.40;99.90;;;;;;4994015;28;196912;-79
2022/07/12 08:17:06;;;;;;;6.47;2.10;;;25.50;99.90;;;;;;4940838;28;208830;-79
2022/07/12 08:19:32;;;;;;;7.68;1.95;;;25.60;99.90;;;;;;4994471;28;272175;-79
2022/07/12 08:21:58;;;;;;;7.03;1.80;;;25.70;99.90;;;;;;4964461;28;203351;-80
2022/07/12 08:24:24;;;;;;;5.25;1.70;;;25.70;99.90;;;;;;4997220;28;275962;-80
2022/07/12 08:26:50;;;;;;;5.60;1.65;;;25.80;99.90;;;;;;4953241;28;205859;-79
2022/07/12 08:29:16;;;;;;;7.77;1.93;;;25.80;99.50;;;;;;5001389;28;249914;-80
2022/07/12 08:31:42;;;;;;;6.32;2.00;;;25.60;99.10;;;;;;4957393;28;202192;-78
2022/07/12 08:34:09;;;;;;;7.82;2.10;;;25.50;98.80;;;;;;4997789;28;249592;-80
2022/07/12 08:36:35;;;;;;;5.70;1.70;;;25.40;98.80;;;;;;4972434;28;209693;-79
2022/07/12 08:39:01;;;;;;;5.45;1.73;;;25.60;99.60;;;;;;5012796;28;20056;-79
2022/07/12 08:41:27;;;;;;;6.50;1.98;;;25.80;98.70;;;;;;4957652;28;205745;-79
2022/07/12 08:43:53;;;;;;;7.68;1.90;;;25.80;98.40;;;;;;5016798;28;20054;-80
2022/07/12 08:46:19;;;;;;;4.65;1.52;;;25.90;98.30;;;;;;4945697;28;206075;-80
2022/07/12 08:48:46;;;;;;;5.93;1.83;;;26.00;98.70;;;;;;5000771;28;20042;-79
2022/07/12 08:51:14;;;;;;;5.90;2.10;;;26.00;98.20;;;;;;4946885;28;212115;-79
2022/07/12 08:53:40;;;;;;;6.10;1.80;;;25.90;98.00;;;;;;5008852;28;20054;-80
2022/07/12 08:56:27;;;;;;;7.03;1.90;;;25.90;98.20;;;;;;4938777;28;217397;-80
2022/07/12 08:59:18;;;;;;;11.45;2.28;;;26.10;97.70;;;;;;4983860;28;20068;-81
2022/07/12 09:01:50;;;;;;;6.47;2.00;;;26.00;96.60;;;;;;4956214;28;196413;-79
2022/07/12 09:04:20;;;;;;;7.47;2.00;;;26.10;97.10;;;;;;4975346;28;270741;-79
2022/07/12 09:06:47;;;;;;;6.20;2.00;;;26.20;96.20;;;;;;4945671;28;206427;-80
2022/07/12 09:09:29;;;;;;;6.40;2.30;;;26.00;97.40;;;;;;4987421;28;250562;-80
2022/07/12 09:11:56;;;;;;;7.55;2.40;;;26.10;97.00;;;;;;4941151;28;200702;-80
2022/07/12 09:14:22;;;;;;;8.10;2.63;;;26.40;96.60;;;;;;4967767;28;253387;-79
2022/07/12 09:17:10;;;;;;;7.47;2.40;;;26.60;95.10;;;;;;4959977;28;206253;-81
2022/07/12 09:19:37;;;;;;;7.40;3.00;;;26.90;95.60;;;;;;4992765;28;147803;-80
2022/07/12 09:22:05;;;;;;;7.30;2.40;;;27.00;94.60;;;;;;4941513;28;205364;-80
2022/07/12 09:24:31;;;;;;;6.47;2.00;;;27.10;94.80;;;;;;4999401;28;271992;-80
2022/07/12 09:27:02;;;;;;;6.32;1.88;;;27.50;94.00;;;;;;4964087;28;125206;-81
2022/07/12 09:29:28;;;;;;;7.28;2.30;;;27.70;94.10;;;;;;4986174;28;250854;-81
2022/07/12 09:37:26;;;;;;;6.60;2.25;;;27.70;92.20;;;;;;4952686;28;205751;-81
2022/07/12 09:39:53;;;;;;;6.10;2.00;;;27.60;91.90;;;;;;4995253;28;202608;-80
2022/07/12 09:42:20;;;;;;;6.28;2.00;;;27.40;90.80;;;;;;4925947;28;208549;-80
2022/07/12 09:44:47;;;;;;;8.18;2.10;;;27.30;91.20;;;;;;5000836;28;75670;-81
2022/07/12 09:47:17;;;;;;;6.68;1.98;;;27.20;91.40;;;;;;4945265;28;204797;-80
2022/07/12 09:49:44;;;;;;;6.47;2.00;;;27.20;91.80;;;;;;4993870;28;62114;-80
2022/07/12 09:52:19;;;;;;;7.13;1.85;;;27.20;91.80;;;;;;4979788;28;184890;-80
2022/07/12 09:54:46;;;;;;;7.90;1.92;;;27.40;91.80;;;;;;5013488;28;222703;-80
2022/07/12 09:57:20;;;;;;;7.72;1.90;;;27.50;91.10;;;;;;4960675;28;209406;-80
2022/07/12 09:59:52;;;;;;;6.00;1.85;;;27.90;88.90;;;;;;5012053;28;220929;-80
2022/07/12 10:02:19;;;;;;;6.10;1.60;;;28.00;89.20;;;;;;4970410;28;204764;-80
2022/07/12 10:04:47;;;;;;;6.40;1.80;;;28.20;90.50;;;;;;5002217;28;136101;-79
2022/07/12 10:07:15;;;;;;;7.13;1.80;;;28.40;87.40;;;;;;4966623;28;206792;-79
2022/07/12 10:09:46;;;;;;;6.63;1.60;;;28.70;87.00;;;;;;5009298;28;132097;-78
2022/07/12 10:12:16;;;;;;;7.53;1.90;;;28.70;84.80;;;;;;4937902;28;204784;-80
2022/07/12 10:14:43;;;;;;;;;;;28.60;82.70;;;;;;5007790;28;57379;-81
2022/07/12 10:17:10;;;;;;;5.55;1.60;;;28.70;81.20;;;;;;4943359;28;210921;-79
2022/07/12 10:19:37;;;;;;;5.05;1.60;;;28.80;84.70;;;;;;5002194;28;41517;-81
2022/07/12 10:22:07;;;;;;;6.78;1.60;;;29.40;82.10;;;;;;4933872;28;217495;-81
2022/07/12 10:24:33;;;;;;;5.22;1.52;;;29.90;81.20;;;;;;4998577;28;153236;-82
2022/07/12 10:27:20;;;;;;;4.75;1.30;;;29.90;78.30;;;;;;4959673;28;208493;-81
2022/07/12 10:29:48;;;;;;;4.65;1.40;;;29.90;74.70;;;;;;4994793;28;278323;-79
2022/07/12 10:32:35;;;;;;;7.40;1.20;;;29.80;72.90;;;;;;4941870;28;218722;-81
2022/07/12 10:35:05;;;;;;;5.88;1.35;;;29.70;68.10;;;;;;5017478;28;61523;-81
2022/07/12 10:37:32;;;;;;;5.00;1.30;;;29.60;70.30;;;;;;4961079;28;205492;-80
2022/07/12 10:40:10;;;;;;;5.10;1.40;;;29.50;71.10;;;;;;5001964;28;229227;-80
2022/07/12 10:42:37;;;;;;;6.72;1.70;;;29.60;71.50;;;;;;4985210;28;179516;-79
2022/07/12 10:45:15;;;;;;;5.57;1.55;;;29.60;69.50;;;;;;5004795;28;107735;-81
2022/07/12 10:47:54;;;;;;;6.18;1.50;;;29.40;70.80;;;;;;4964255;28;205116;-80
2022/07/12 10:50:44;;;;;;;3.97;1.30;;;29.30;67.40;;;;;;4971912;28;203057;-80
2022/07/12 10:53:30;;;;;;;4.28;1.10;;;29.40;67.30;;;;;;4995307;28;20043;-80
2022/07/12 10:56:09;;;;;;;4.05;1.00;;;29.60;68.10;;;;;;4950785;28;205716;-81
2022/07/12 10:58:35;;;;;;;3.63;1.00;;;30.00;69.40;;;;;;5008944;28;20046;-80
2022/07/12 11:01:03;;;;;;;3.10;1.00;;;30.40;64.00;;;;;;4923008;28;511838;-80
2022/07/12 11:03:45;;;;;;;5.43;1.05;;;30.40;64.60;;;;;;4990397;28;20073;-81
2022/07/12 11:06:16;;;;;;;5.78;1.30;;;30.40;61.70;;;;;;4934366;28;197238;-81
2022/07/12 11:08:58;;;;;;;5.38;1.50;;;30.10;65.10;;;;;;5027139;28;20053;-81
2022/07/12 11:11:34;;;;;;;5.53;1.13;;;30.30;65.40;;;;;;4940898;28;219482;-83
2022/07/12 11:14:01;;;;;;;5.18;1.25;;;30.60;66.70;;;;;;5015713;28;20058;-79
2022/07/12 11:16:31;;;;;;;3.47;1.00;;;30.70;63.20;;;;;;4968171;28;293148;-81
2022/07/12 11:18:57;;;;;;;4.97;1.10;;;31.00;66.20;;;;;;5011958;28;20046;-81
2022/07/12 11:21:24;;;;;;;4.68;1.13;;;31.00;64.90;;;;;;4964475;28;256304;-81
2022/07/12 11:23:51;;;;;;;5.82;1.10;;;31.60;65.20;;;;;;5004680;28;20117;-81
2022/07/12 11:26:17;;;;;;;6.00;1.13;;;32.00;63.00;;;;;;4937317;28;217470;-82
2022/07/12 11:28:45;;;;;;;7.28;1.20;;;32.30;61.60;;;;;;5005766;28;20058;-81
2022/07/12 11:31:18;;;;;;;6.95;1.30;;;32.30;59.10;;;;;;4932681;28;171394;-82
2022/07/12 11:33:47;;;;;;;4.85;1.13;;;32.10;58.20;;;;;;4997095;28;20064;-82
2022/07/12 11:36:14;;;;;;;3.47;1.05;;;32.00;58.80;;;;;;4942556;28;205264;-81
2022/07/12 11:38:42;;;;;;;4.45;1.05;;;32.00;58.60;;;;;;5023380;28;20041;-81
2022/07/12 11:41:09;;;;;;;4.88;0.80;;;32.00;59.10;;;;;;4941962;28;204560;-83
2022/07/12 11:43:37;;;;;;;2.97;0.80;;;32.10;58.80;;;;;;5006670;28;20072;-82
2022/07/12 11:46:04;;;;;;;5.75;1.10;;;32.20;57.30;;;;;;4950303;28;243097;-82
2022/07/12 11:48:34;;;;;;;7.45;1.15;;;32.10;58.00;;;;;;5008675;28;20053;-83
2022/07/12 11:51:03;;;;;;;6.30;1.38;;;32.20;57.60;;;;;;4948704;28;210932;-82
2022/07/12 11:53:31;;;;;;;6.53;1.33;;;32.40;57.70;;;;;;5012735;28;20053;-82
2022/07/12 11:56:00;;;;;;;5.38;1.40;;;32.40;56.40;;;;;;4960084;28;103915;-81
2022/07/12 11:58:27;;;;;;;40.55;2.03;;;32.30;56.50;;;;;;5002360;28;20050;-82
2022/07/12 12:00:54;;;;;;;5.40;1.13;;;32.40;57.90;;;;;;4952138;28;209142;-81
2022/07/12 12:03:24;;;;;;;4.28;1.10;;;32.50;57.10;;;;;;4986285;28;20058;-82
2022/07/12 12:05:52;;;;;;;6.43;1.13;;;32.40;54.20;;;;;;4925699;28;248122;-83
2022/07/12 12:08:19;;;;;;;6.18;1.20;;;32.40;55.80;;;;;;4980180;28;20061;-83
2022/07/12 12:10:59;;;;;;;3.78;0.98;;;31.80;55.60;;;;;;4946488;28;205755;-83
2022/07/12 12:13:29;;;;;;;;;;;31.70;55.20;;;;;;4996628;28;20053;-82
2022/07/12 12:15:57;;;;;;;4.28;0.95;;;31.70;53.20;;;;;;4947335;28;198601;-83
2022/07/12 12:18:34;;;;;;;3.10;0.77;;;31.40;54.50;;;;;;5008876;28;20054;-82
2022/07/12 12:21:06;;;;;;;4.13;0.90;;;31.70;53.40;;;;;;4963639;28;144845;-83
2022/07/12 12:23:32;;;;;;;3.45;0.82;;;31.90;53.50;;;;;;4995973;28;20495;-83
2022/07/12 12:26:16;;;;;;;5.45;1.00;;;32.10;53.80;;;;;;4945753;28;207356;-82
2022/07/12 12:28:53;;;;;;;6.47;1.00;;;32.50;51.10;;;;;;5006738;28;20058;-82
2022/07/12 12:31:21;;;;;;;5.43;1.00;;;32.40;52.70;;;;;;4950351;28;246233;-80
2022/07/12 12:33:51;;;;;;;4.75;0.90;;;32.30;53.70;;;;;;5016156;28;20060;-80
2022/07/12 12:36:25;;;;;;;3.97;0.80;;;32.50;52.80;;;;;;4968491;28;207401;-81
2022/07/12 12:38:55;;;;;;;5.00;0.80;;;32.80;53.00;;;;;;5024753;28;20360;-80
2022/07/12 12:41:22;;;;;;;4.07;0.73;;;32.90;54.30;;;;;;4951142;28;209981;-81
2022/07/12 12:44:00;;;;;;;4.20;0.95;;;33.00;51.40;;;;;;4994317;28;20086;-80
2022/07/12 12:46:45;;;;;;;3.33;0.90;;;33.20;51.70;;;;;;4947960;28;213861;-81
2022/07/12 12:49:12;;;;;;;5.28;0.90;;;33.40;52.30;;;;;;4967568;28;258619;-81
2022/07/12 12:51:55;;;;;;;3.47;0.90;;;33.60;52.10;;;;;;4964305;28;206214;-79
2022/07/12 12:54:36;;;;;;;5.43;1.05;;;33.90;49.50;;;;;;5014972;28;264276;-80